weather.gov     
National Weather Service

Terminal Aerodrome Forecast
NWS Homepage
This page is being discontinued on March 12, 2014.
The same data is available at this site. Please update your bookmarks.
Thank you, and we apologize for the inconvenience.
Please send an email to SR-SRH.Webmaster@noaa.gov with any concerns.


Current Version
Previous Version:    01  02  03  04  05  06  07  08  09  10  11  12  13  14  15  16  17  18  19  20  21  22  23  24  25  26  27  28  29  
[Printable]
874
FTUS45 KSLC 300520
TAFLGU
TAF
KLGU 300520Z 3006/3106 33008KT P6SM VCSH FEW030 BKN040 OVC060
     FM300800 11006KT P6SM VCSH SCT040 BKN070
     FM301000 01005KT P6SM SCT070 BKN140
     FM301700 35006KT P6SM SCT100
     FM310300 13004KT P6SM SKC=




874
FTUS45 KSLC 300520
TAFLGU
TAF
KLGU 300520Z 3006/3106 33008KT P6SM VCSH FEW030 BKN040 OVC060
     FM300800 11006KT P6SM VCSH SCT040 BKN070
     FM301000 01005KT P6SM SCT070 BKN140
     FM301700 35006KT P6SM SCT100
     FM310300 13004KT P6SM SKC=


U.S. Dept. of Commerce
NOAA National Weather Service
1325 East West Highway
Silver Spring, MD 20910
E-mail: w-nws.webmaster@noaa.gov
Page last modified: May 16, 2007
NATIONAL WEATHER SERVICE: for Safety, for Work, for Fun - FOR LIFE